createdAt,value
2023-03-02T00:00:05.957Z,0.6
2023-03-02T00:01:06.309Z,0.5
2023-03-02T00:02:06.218Z,0.5
2023-03-02T00:03:06.114Z,0.6
2023-03-02T00:04:06.071Z,0
2023-03-02T00:05:06.774Z,0.5
2023-03-02T00:06:05.936Z,0
2023-03-02T00:07:06.714Z,0.5
2023-03-02T00:08:06.598Z,0.6
2023-03-02T00:09:06.196Z,0.5
2023-03-02T00:10:06.121Z,0.6
2023-03-02T00:11:06.278Z,0.5
2023-03-02T00:12:06.186Z,0.5
2023-03-02T00:13:05.866Z,0.5
2023-03-02T00:14:05.668Z,0.6
2023-03-02T00:15:06.682Z,0.6
2023-03-02T00:16:06.060Z,0
2023-03-02T00:17:06.494Z,0.6
2023-03-02T00:18:06.364Z,0.6
2023-03-02T00:19:06.384Z,0.6
2023-03-02T00:20:06.253Z,0.6
2023-03-02T00:21:06.282Z,0.6
2023-03-02T00:22:06.250Z,0.6
2023-03-02T00:23:05.994Z,0.6
2023-03-02T00:24:05.587Z,0.5
2023-03-02T00:25:06.708Z,0.6
2023-03-02T00:26:05.934Z,0.6
2023-03-02T00:27:06.760Z,0.6
2023-03-02T00:28:06.340Z,0
2023-03-02T00:29:06.463Z,0.6
2023-03-02T00:30:06.112Z,0.6
2023-03-02T00:31:06.804Z,0.6
2023-03-02T00:32:06.660Z,0
2023-03-02T00:33:06.226Z,0.5
2023-03-02T00:34:06.037Z,0.5
2023-03-02T00:35:06.072Z,0.6
2023-03-02T00:36:06.434Z,0.5
2023-03-02T00:37:06.224Z,0.5
2023-03-02T00:38:06.005Z,0.6
2023-03-02T00:39:06.112Z,0.5
2023-03-02T00:40:06.056Z,0.5
2023-03-02T00:41:06.145Z,0.5
2023-03-02T00:42:05.771Z,0.5
2023-03-02T00:43:06.736Z,0.5
2023-03-02T00:44:06.729Z,0.5
2023-03-02T00:45:06.616Z,0.5
2023-03-02T00:46:05.718Z,0.5
2023-03-02T00:47:06.831Z,0.5
2023-03-02T00:48:06.348Z,0.5
2023-03-02T00:49:06.379Z,0.5
2023-03-02T00:50:05.922Z,0.5
2023-03-02T00:51:06.354Z,0
2023-03-02T00:52:06.151Z,0.5
2023-03-02T00:53:05.913Z,0.5
2023-03-02T00:54:05.738Z,0.4
2023-03-02T00:55:06.782Z,0.5
2023-03-02T00:56:06.008Z,0.5
2023-03-02T00:57:06.698Z,0.5
2023-03-02T00:58:06.396Z,0.5
2023-03-02T00:59:06.229Z,0.5
2023-03-02T01:00:06.121Z,0.5
2023-03-02T01:01:06.706Z,0.5
2023-03-02T01:02:06.661Z,0.5
2023-03-02T01:03:06.562Z,0.5
2023-03-02T01:04:06.077Z,0.5
2023-03-02T01:05:06.051Z,0.5
2023-03-02T01:06:06.016Z,0.4
2023-03-02T01:07:06.104Z,0.5
2023-03-02T01:08:05.813Z,0.5
2023-03-02T01:09:06.741Z,0.5
2023-03-02T01:10:06.604Z,0.5
2023-03-02T01:11:06.372Z,0.4
2023-03-02T01:12:06.213Z,0.5
2023-03-02T01:13:05.875Z,0.5
2023-03-02T01:14:05.791Z,0.4
2023-03-02T01:15:06.624Z,0
2023-03-02T01:16:06.035Z,0.4
2023-03-02T01:17:06.525Z,0
2023-03-02T01:18:06.257Z,0.4
2023-03-02T01:19:06.589Z,0.4
2023-03-02T01:20:06.626Z,0.4
2023-03-02T01:21:05.778Z,0.4
2023-03-02T01:22:06.829Z,0.4
2023-03-02T01:23:06.541Z,0.4
2023-03-02T01:24:06.404Z,0.4
2023-03-02T01:25:06.368Z,0.4
2023-03-02T01:26:06.262Z,0.4
2023-03-02T01:27:06.116Z,0.4
2023-03-02T01:28:05.972Z,0.4
2023-03-02T01:29:06.006Z,0.4
2023-03-02T01:30:06.524Z,0.4
2023-03-02T01:31:06.643Z,0.4
2023-03-02T01:32:06.632Z,0.4
2023-03-02T01:33:06.001Z,0.4
2023-03-02T01:34:05.937Z,0.4
2023-03-02T01:35:05.839Z,0.4
2023-03-02T01:36:06.113Z,0.4
2023-03-02T01:37:05.694Z,0.4
2023-03-02T01:38:06.487Z,0.3
2023-03-02T01:39:06.527Z,0
2023-03-02T01:40:06.190Z,0.3
2023-03-02T01:41:06.601Z,0
2023-03-02T01:42:06.316Z,0.3
2023-03-02T01:43:06.239Z,0.3
2023-03-02T01:44:05.927Z,0.3
2023-03-02T01:45:05.766Z,0
2023-03-02T01:46:06.530Z,0.3
2023-03-02T01:47:05.661Z,0.3
2023-03-02T01:48:06.864Z,0.3
2023-03-02T01:49:06.429Z,0.3
2023-03-02T01:50:06.212Z,0
2023-03-02T01:51:06.260Z,0.2
2023-03-02T01:52:06.158Z,0
2023-03-02T01:53:06.894Z,0.2
2023-03-02T01:54:06.769Z,0.2
2023-03-02T01:55:06.844Z,0.2
2023-03-02T01:56:06.754Z,0.2
2023-03-02T01:57:06.556Z,0.2
2023-03-02T01:58:06.385Z,0.3
2023-03-02T01:59:06.002Z,0.2
2023-03-02T02:00:06.357Z,0.2
2023-03-02T02:01:05.982Z,0.2
2023-03-02T02:02:06.634Z,0
2023-03-02T02:03:06.298Z,0.2
2023-03-02T02:04:06.638Z,0.2
2023-03-02T02:05:06.161Z,0
2023-03-02T02:06:06.139Z,0.2
2023-03-02T02:07:05.776Z,0.2
2023-03-02T02:08:06.914Z,0.1
2023-03-02T02:09:06.747Z,0.1
2023-03-02T02:10:06.342Z,0
2023-03-02T02:11:06.480Z,0.1
2023-03-02T02:12:06.434Z,0
2023-03-02T02:13:06.190Z,0
2023-03-02T02:14:06.169Z,0
2023-03-02T02:15:06.275Z,0
2023-03-02T02:16:06.637Z,0.1
2023-03-02T02:17:06.059Z,0
2023-03-02T02:18:05.967Z,0
2023-03-02T02:19:05.931Z,0
2023-03-02T02:20:05.850Z,0
2023-03-02T02:21:06.266Z,0
2023-03-02T02:22:05.779Z,0
2023-03-02T02:23:05.602Z,0
2023-03-02T02:24:06.821Z,0
2023-03-02T02:25:06.579Z,0
2023-03-02T02:26:05.941Z,0
2023-03-02T02:27:06.722Z,0
2023-03-02T02:28:06.475Z,0
2023-03-02T02:29:06.269Z,0
2023-03-02T02:30:05.939Z,0
2023-03-02T02:31:06.529Z,0
2023-03-02T02:32:07.095Z,0
2023-03-02T02:33:06.245Z,0
2023-03-02T02:34:06.088Z,0
2023-03-02T02:35:05.911Z,0
2023-03-02T02:36:06.442Z,0
2023-03-02T02:37:05.881Z,0
2023-03-02T02:38:05.775Z,0
2023-03-02T02:39:06.746Z,0
2023-03-02T02:40:06.555Z,0
2023-03-02T02:41:06.717Z,0
2023-03-02T02:42:06.770Z,0
2023-03-02T02:43:06.429Z,0
2023-03-02T02:44:05.919Z,0
2023-03-02T02:45:05.919Z,0
2023-03-02T02:46:06.424Z,-0.1
2023-03-02T02:47:05.940Z,-0.1
2023-03-02T02:48:05.682Z,-0.1
2023-03-02T02:49:05.835Z,0
2023-03-02T02:50:06.533Z,-0.1
2023-03-02T02:51:05.983Z,-0.1
2023-03-02T02:52:05.654Z,-0.1
2023-03-02T02:53:06.535Z,-0.1
2023-03-02T02:54:06.346Z,-0.1
2023-03-02T02:55:06.348Z,-0.1
2023-03-02T02:56:06.502Z,-0.1
2023-03-02T02:57:06.288Z,0
2023-03-02T02:58:06.192Z,-0.1
2023-03-02T02:59:05.633Z,-0.1
2023-03-02T03:00:06.476Z,0
2023-03-02T03:01:06.905Z,-0.1
2023-03-02T03:02:06.500Z,-0.1
2023-03-02T03:03:06.320Z,0
2023-03-02T03:04:06.637Z,-0.1
2023-03-02T03:05:06.188Z,-0.1
2023-03-02T03:06:06.417Z,-0.1
2023-03-02T03:07:06.330Z,-0.1
2023-03-02T03:08:06.172Z,-0.1
2023-03-02T03:09:05.969Z,-0.1
2023-03-02T03:10:05.890Z,-0.1
2023-03-02T03:11:05.665Z,-0.1
2023-03-02T03:12:06.673Z,-0.1
2023-03-02T03:13:06.515Z,-0.1
2023-03-02T03:14:06.296Z,-0.1
2023-03-02T03:15:06.157Z,-0.1
2023-03-02T03:16:05.940Z,0
2023-03-02T03:17:06.032Z,-0.1
2023-03-02T03:18:06.703Z,-0.1
2023-03-02T03:19:06.489Z,0
2023-03-02T03:20:06.435Z,0
2023-03-02T03:21:06.371Z,0
2023-03-02T03:22:06.318Z,0
2023-03-02T03:23:06.216Z,0
2023-03-02T03:24:06.047Z,0
2023-03-02T03:25:05.638Z,0
2023-03-02T03:26:06.357Z,0
2023-03-02T03:27:05.933Z,0
2023-03-02T03:28:05.801Z,0
2023-03-02T03:29:06.639Z,0
2023-03-02T03:30:06.512Z,0
2023-03-02T03:31:06.391Z,0
2023-03-02T03:32:06.434Z,0
2023-03-02T03:33:06.130Z,0
2023-03-02T03:34:05.947Z,0
2023-03-02T03:35:05.816Z,0
2023-03-02T03:36:06.301Z,0
2023-03-02T03:37:06.159Z,0
2023-03-02T03:38:05.595Z,0
2023-03-02T03:39:06.597Z,0
2023-03-02T03:40:06.379Z,0
2023-03-02T03:41:06.682Z,0
2023-03-02T03:42:06.406Z,0
2023-03-02T03:43:06.025Z,0
2023-03-02T03:44:07.106Z,0
2023-03-02T03:45:06.056Z,0
2023-03-02T03:46:06.594Z,0
2023-03-02T03:47:06.152Z,0
2023-03-02T03:48:06.078Z,0
2023-03-02T03:49:05.820Z,0
2023-03-02T03:50:05.815Z,0
2023-03-02T03:51:06.179Z,0
2023-03-02T03:52:06.030Z,0
2023-03-02T03:53:08.033Z,0
2023-03-02T03:54:06.668Z,0
2023-03-02T03:55:06.605Z,0
2023-03-02T03:56:06.449Z,0.1
2023-03-02T03:57:06.513Z,0
2023-03-02T03:58:06.311Z,0
2023-03-02T03:59:05.915Z,0
2023-03-02T04:00:06.104Z,0
2023-03-02T04:01:06.726Z,0
2023-03-02T04:02:06.483Z,0
2023-03-02T04:03:06.270Z,0
2023-03-02T04:04:05.823Z,0
2023-03-02T04:05:06.228Z,0
2023-03-02T04:06:06.234Z,0
2023-03-02T04:07:06.126Z,0
2023-03-02T04:08:05.994Z,0
2023-03-02T04:09:05.862Z,0
2023-03-02T04:10:06.627Z,0
2023-03-02T04:11:06.267Z,0
2023-03-02T04:12:06.128Z,0
2023-03-02T04:13:05.872Z,0
2023-03-02T04:14:06.693Z,0
2023-03-02T04:15:06.645Z,0
2023-03-02T04:16:06.392Z,0
2023-03-02T04:17:05.843Z,0
2023-03-02T04:18:05.969Z,0
2023-03-02T04:19:06.635Z,0
2023-03-02T04:20:06.302Z,0
2023-03-02T04:21:05.815Z,0.1
2023-03-02T04:22:06.566Z,0
2023-03-02T04:23:06.232Z,0.1
2023-03-02T04:24:06.515Z,0.1
2023-03-02T04:25:05.821Z,0
2023-03-02T04:26:06.425Z,0
2023-03-02T04:27:06.338Z,0
2023-03-02T04:28:06.147Z,0
2023-03-02T04:29:05.834Z,0
2023-03-02T04:30:06.632Z,0
2023-03-02T04:31:06.787Z,0
2023-03-02T04:32:06.611Z,0
2023-03-02T04:33:06.426Z,0
2023-03-02T04:34:06.240Z,0
2023-03-02T04:35:06.300Z,0
2023-03-02T04:36:06.641Z,0
2023-03-02T04:37:06.208Z,0
2023-03-02T04:38:05.995Z,0
2023-03-02T04:39:05.806Z,0
2023-03-02T04:40:06.793Z,0
2023-03-02T04:41:06.041Z,0
2023-03-02T04:42:05.960Z,0
2023-03-02T04:43:05.653Z,0
2023-03-02T04:44:06.586Z,0
2023-03-02T04:45:06.577Z,0
2023-03-02T04:46:06.713Z,0
2023-03-02T04:47:06.331Z,0
2023-03-02T04:48:06.066Z,0.1
2023-03-02T04:49:05.687Z,0.1
2023-03-02T04:50:06.797Z,0.1
2023-03-02T04:51:05.889Z,0.1
2023-03-02T04:52:05.725Z,0.1
2023-03-02T04:53:06.740Z,0.1
2023-03-02T04:54:06.579Z,0.1
2023-03-02T04:55:06.272Z,0.1
2023-03-02T04:56:06.534Z,0.1
2023-03-02T04:57:06.527Z,0.1
2023-03-02T04:58:06.367Z,0.2
2023-03-02T04:59:06.021Z,0.2
2023-03-02T05:00:05.903Z,0
2023-03-02T05:01:05.815Z,0.2
2023-03-02T05:02:06.076Z,0.2
2023-03-02T05:03:06.658Z,0
2023-03-02T05:04:07.426Z,0.2
2023-03-02T05:05:06.553Z,0.2
2023-03-02T05:06:06.630Z,0
2023-03-02T05:07:06.636Z,0.2
2023-03-02T05:08:06.506Z,0.2
2023-03-02T05:09:06.500Z,0.2
2023-03-02T05:10:06.196Z,0
2023-03-02T05:11:06.290Z,0
2023-03-02T05:12:06.055Z,0.3
2023-03-02T05:13:05.965Z,0.3
2023-03-02T05:14:05.827Z,0.3
2023-03-02T05:15:05.909Z,0.3
2023-03-02T05:16:06.440Z,0.3
2023-03-02T05:17:06.241Z,0.2
2023-03-02T05:18:05.801Z,0.2
2023-03-02T05:19:05.802Z,0.3
2023-03-02T05:20:06.602Z,0.3
2023-03-02T05:21:05.972Z,0.3
2023-03-02T05:22:05.925Z,0.3
2023-03-02T05:23:05.824Z,0
2023-03-02T05:24:06.787Z,0.3
2023-03-02T05:25:06.620Z,0.3
2023-03-02T05:26:06.030Z,0.3
2023-03-02T05:27:05.705Z,0.3
2023-03-02T05:28:06.581Z,0.3
2023-03-02T05:29:06.420Z,0.3
2023-03-02T05:30:06.281Z,0.3
2023-03-02T05:31:06.905Z,0.3
2023-03-02T05:32:06.702Z,0.3
2023-03-02T05:33:06.362Z,0.4
2023-03-02T05:34:06.100Z,0.4
2023-03-02T05:35:05.668Z,0.4
2023-03-02T05:36:06.399Z,0.4
2023-03-02T05:37:05.732Z,0.4
2023-03-02T05:38:05.896Z,0.4
2023-03-02T05:39:06.826Z,0.4
2023-03-02T05:40:06.604Z,0.4
2023-03-02T05:41:05.721Z,0.4
2023-03-02T05:42:06.723Z,0.4
2023-03-02T05:43:06.610Z,0.3
2023-03-02T05:44:06.154Z,0.3
2023-03-02T05:45:06.323Z,0.4
2023-03-02T05:46:06.633Z,0.4
2023-03-02T05:47:06.585Z,0.4
2023-03-02T05:48:06.382Z,0.3
2023-03-02T05:49:06.153Z,0.3
2023-03-02T05:50:05.920Z,0.3
2023-03-02T05:51:06.382Z,0.3
2023-03-02T05:52:06.186Z,0.3
2023-03-02T05:53:06.062Z,0.3
2023-03-02T05:54:05.897Z,0.3
2023-03-02T05:55:05.786Z,0.3
2023-03-02T05:56:06.121Z,0.3
2023-03-02T05:57:05.913Z,0
2023-03-02T05:58:06.616Z,0.3
2023-03-02T05:59:06.512Z,0.3
2023-03-02T06:00:06.482Z,0.4
2023-03-02T06:01:05.649Z,0.4
2023-03-02T06:02:06.606Z,0.4
2023-03-02T06:03:06.774Z,0.4
2023-03-02T06:04:06.170Z,0.4
2023-03-02T06:05:06.068Z,0.4
2023-03-02T06:06:06.605Z,0.4
2023-03-02T06:07:06.096Z,0.4
2023-03-02T06:08:06.074Z,0.4
2023-03-02T06:09:05.914Z,0.4
2023-03-02T06:10:06.037Z,0.4
2023-03-02T06:11:05.817Z,0.4
2023-03-02T06:12:05.687Z,0.4
2023-03-02T06:13:06.835Z,0.4
2023-03-02T06:14:06.387Z,0.4
2023-03-02T06:15:06.249Z,0.4
2023-03-02T06:16:06.630Z,0.4
2023-03-02T06:17:06.331Z,0.4
2023-03-02T06:18:06.174Z,0.4
2023-03-02T06:19:05.699Z,0.4
2023-03-02T06:20:05.874Z,0.4
2023-03-02T06:21:05.950Z,0
2023-03-02T06:22:05.621Z,0.4
2023-03-02T06:23:05.638Z,0.5
2023-03-02T06:24:05.621Z,0.5
2023-03-02T06:25:06.517Z,0.4
2023-03-02T06:26:05.900Z,0.4
2023-03-02T06:27:06.639Z,0.4
2023-03-02T06:28:06.477Z,0.5
2023-03-02T06:29:06.224Z,0.5
2023-03-02T06:30:06.013Z,0.5
2023-03-02T06:31:06.394Z,0.6
2023-03-02T06:32:06.705Z,0.5
2023-03-02T06:33:05.976Z,0.6
2023-03-02T06:34:05.975Z,0.6
2023-03-02T06:35:06.127Z,0.6
2023-03-02T06:36:06.282Z,0.6
2023-03-02T06:37:06.729Z,0.6
2023-03-02T06:38:06.683Z,0.7
2023-03-02T06:39:06.461Z,0
2023-03-02T06:40:06.320Z,0.7
2023-03-02T06:41:06.323Z,0.7
2023-03-02T06:42:06.348Z,0.8
2023-03-02T06:43:08.402Z,0.8
2023-03-02T06:44:06.096Z,0.8
2023-03-02T06:45:05.984Z,0.9
2023-03-02T06:46:06.036Z,0.9
2023-03-02T06:47:06.493Z,1
2023-03-02T06:48:06.480Z,1
2023-03-02T06:49:06.409Z,1
2023-03-02T06:50:06.216Z,1.1
2023-03-02T06:51:06.151Z,1.1
2023-03-02T06:52:06.110Z,1.1
2023-03-02T06:53:06.000Z,1.2
2023-03-02T06:54:05.975Z,1.2
2023-03-02T06:55:05.973Z,1.2
2023-03-02T06:56:06.101Z,1.3
2023-03-02T06:57:06.023Z,1.3
2023-03-02T06:58:05.953Z,1.4
2023-03-02T06:59:06.693Z,1.5
2023-03-02T07:00:06.328Z,1
2023-03-02T07:01:06.977Z,1.5
2023-03-02T07:02:06.425Z,1.6
2023-03-02T07:03:06.435Z,1.6
2023-03-02T07:04:06.691Z,1.7
2023-03-02T07:05:06.014Z,1.8
2023-03-02T07:06:06.494Z,1.7
2023-03-02T07:07:06.041Z,1.8
2023-03-02T07:08:06.066Z,1.9
2023-03-02T07:09:05.935Z,2
2023-03-02T07:10:05.722Z,1.9
2023-03-02T07:11:06.093Z,2
2023-03-02T07:12:05.741Z,2
2023-03-02T07:13:08.707Z,2.1
2023-03-02T07:14:06.663Z,2.1
2023-03-02T07:15:06.395Z,2.2
2023-03-02T07:16:06.181Z,2.2
2023-03-02T07:17:06.302Z,2.2
2023-03-02T07:18:05.789Z,2.3
2023-03-02T07:19:06.061Z,2.2
2023-03-02T07:20:05.761Z,2.4
2023-03-02T07:21:06.103Z,2.4
2023-03-02T07:22:05.707Z,2.4
2023-03-02T07:23:06.642Z,2.5
2023-03-02T07:24:06.333Z,2.6
2023-03-02T07:25:06.135Z,2.6
2023-03-02T07:26:06.083Z,2.6
2023-03-02T07:27:06.044Z,2.7
2023-03-02T07:28:05.902Z,2.7
2023-03-02T07:29:05.912Z,2.8
2023-03-02T07:30:05.736Z,3
2023-03-02T07:31:06.280Z,2.8
2023-03-02T07:32:06.254Z,2.8
2023-03-02T07:33:05.989Z,2.9
2023-03-02T07:34:06.604Z,2.9
2023-03-02T07:35:06.372Z,3
2023-03-02T07:36:06.584Z,4
2023-03-02T07:37:06.371Z,3.1
2023-03-02T07:38:06.256Z,3.2
2023-03-02T07:39:06.271Z,3.2
2023-03-02T07:40:06.145Z,3.2
2023-03-02T07:41:05.807Z,3.2
2023-03-02T07:42:06.029Z,3.2
2023-03-02T07:43:05.977Z,3.3
2023-03-02T07:44:05.759Z,3.4
2023-03-02T07:45:06.793Z,3.4
2023-03-02T07:46:06.306Z,3.5
2023-03-02T07:47:06.129Z,3.5
2023-03-02T07:48:05.873Z,3.6
2023-03-02T07:49:05.941Z,3.6
2023-03-02T07:50:07.010Z,3.7
2023-03-02T07:51:06.042Z,3.7
2023-03-02T07:52:05.890Z,5
2023-03-02T07:53:05.864Z,3.8
2023-03-02T07:54:06.717Z,3.8
2023-03-02T07:55:06.396Z,3.9
2023-03-02T07:56:06.853Z,4
2023-03-02T07:57:06.523Z,4
2023-03-02T07:58:06.373Z,4
2023-03-02T07:59:06.401Z,4.1
2023-03-02T08:00:06.228Z,4.2
2023-03-02T08:01:06.683Z,4.2
2023-03-02T08:02:06.524Z,4.3
2023-03-02T08:03:06.527Z,4.3
2023-03-02T08:04:05.777Z,4.3
2023-03-02T08:05:05.956Z,4.4
2023-03-02T08:06:06.113Z,4.4
2023-03-02T08:07:06.115Z,4.4
2023-03-02T08:08:05.951Z,4.5
2023-03-02T08:09:06.473Z,6
2023-03-02T08:10:06.216Z,4.6
2023-03-02T08:11:06.622Z,4.6
2023-03-02T08:12:06.213Z,4.7
2023-03-02T08:13:06.320Z,4.7
2023-03-02T08:14:06.084Z,4.7
2023-03-02T08:15:07.915Z,6
2023-03-02T08:16:05.991Z,4.9
2023-03-02T08:17:05.760Z,4.9
2023-03-02T08:18:06.783Z,5
2023-03-02T08:19:06.376Z,6
2023-03-02T08:20:06.376Z,5
2023-03-02T08:21:06.287Z,5.1
2023-03-02T08:22:06.265Z,6
2023-03-02T08:23:06.080Z,5.2
2023-03-02T08:24:06.081Z,6
2023-03-02T08:25:05.991Z,5.3
2023-03-02T08:26:06.245Z,5.4
2023-03-02T08:27:06.404Z,5.4
2023-03-02T08:28:06.024Z,5.5
2023-03-02T08:29:05.744Z,5.5
2023-03-02T08:30:06.775Z,5.6
2023-03-02T08:31:06.007Z,5.6
2023-03-02T08:32:07.581Z,5.6
2023-03-02T08:33:11.114Z,5.7
2023-03-02T08:34:06.316Z,5.8
2023-03-02T08:35:06.224Z,6
2023-03-02T08:36:06.697Z,5.9
2023-03-02T08:37:06.350Z,6
2023-03-02T08:38:06.221Z,6
2023-03-02T08:39:05.798Z,6
2023-03-02T08:40:05.810Z,6.1
2023-03-02T08:41:05.974Z,6.2
2023-03-02T08:42:06.660Z,6.3
2023-03-02T08:43:08.815Z,6.3
2023-03-02T08:44:06.312Z,6.4
2023-03-02T08:45:06.216Z,6.4
2023-03-02T08:46:06.732Z,6.5
2023-03-02T08:47:06.530Z,6.6
2023-03-02T08:48:06.113Z,6.7
2023-03-02T08:49:06.263Z,6.8
2023-03-02T08:50:06.083Z,6.8
2023-03-02T08:51:05.959Z,6.9
2023-03-02T08:52:05.784Z,7
2023-03-02T08:53:06.617Z,7
2023-03-02T08:54:06.394Z,7.1
2023-03-02T08:55:08.144Z,7.1
2023-03-02T08:56:06.459Z,7.2
2023-03-02T08:57:06.273Z,7.2
2023-03-02T08:58:05.984Z,7.3
2023-03-02T08:59:05.851Z,7.3
2023-03-02T09:00:05.862Z,7.4
2023-03-02T09:01:06.231Z,7.4
2023-03-02T09:02:05.850Z,7.4
2023-03-02T09:03:06.741Z,7.4
2023-03-02T09:04:06.811Z,7.5
2023-03-02T09:05:06.402Z,7.5
2023-03-02T09:06:06.496Z,8
2023-03-02T09:07:06.488Z,7.6
2023-03-02T09:08:06.140Z,7.7
2023-03-02T09:09:06.071Z,7.7
2023-03-02T09:10:05.965Z,7.8
2023-03-02T09:11:06.181Z,7.9
2023-03-02T09:12:05.835Z,7.9
2023-03-02T09:13:09.504Z,8
2023-03-02T09:14:06.560Z,8
2023-03-02T09:15:06.398Z,8.1
2023-03-02T09:16:05.945Z,8.2
2023-03-02T09:17:06.095Z,9
2023-03-02T09:18:05.764Z,9
2023-03-02T09:19:06.629Z,8.3
2023-03-02T09:20:06.593Z,8.3
2023-03-02T09:21:06.021Z,8.4
2023-03-02T09:22:05.774Z,8.4
2023-03-02T09:23:05.760Z,8.4
2023-03-02T09:24:06.722Z,8.4
2023-03-02T09:25:06.250Z,8.6
2023-03-02T09:26:06.430Z,8.6
2023-03-02T09:27:06.648Z,8.6
2023-03-02T09:28:06.184Z,8.7
2023-03-02T09:29:06.122Z,8.8
2023-03-02T09:30:06.014Z,8.9
2023-03-02T09:31:06.262Z,8.8
2023-03-02T09:32:06.317Z,8.9
2023-03-02T09:33:06.066Z,8.9
2023-03-02T09:34:05.838Z,9
2023-03-02T09:35:06.560Z,9
2023-03-02T09:36:05.811Z,9.2
2023-03-02T09:37:06.715Z,9.2
2023-03-02T09:38:06.851Z,9.3
2023-03-02T09:39:06.189Z,9.4
2023-03-02T09:40:06.071Z,9.4
2023-03-02T09:41:06.337Z,9.6
2023-03-02T09:42:06.319Z,9.6
2023-03-02T09:43:05.967Z,9.6
2023-03-02T09:44:05.639Z,9.6
2023-03-02T09:45:06.559Z,10
2023-03-02T09:46:06.473Z,9.7
2023-03-02T09:47:05.951Z,9.7
2023-03-02T09:48:05.826Z,9.7
2023-03-02T09:49:07.447Z,9.7
2023-03-02T09:50:06.287Z,9.8
2023-03-02T09:51:06.435Z,9.8
2023-03-02T09:52:06.278Z,9.8
2023-03-02T09:53:06.532Z,9.8
2023-03-02T09:54:06.252Z,10
2023-03-02T09:55:05.690Z,9.9
2023-03-02T09:56:06.007Z,10
2023-03-02T09:57:05.828Z,10
2023-03-02T09:58:06.762Z,10
2023-03-02T09:59:05.776Z,10
2023-03-02T10:00:22.627Z,10.1
2023-03-02T10:01:06.473Z,10.1
2023-03-02T10:02:06.776Z,10.2
2023-03-02T10:03:20.045Z,10
2023-03-02T10:04:06.898Z,10
2023-03-02T10:05:06.139Z,10
2023-03-02T10:06:06.611Z,10.3
2023-03-02T10:07:06.410Z,10
2023-03-02T10:08:06.399Z,10
2023-03-02T10:09:05.719Z,10.4
2023-03-02T10:10:05.982Z,10.7
2023-03-02T10:11:07.169Z,10.7
2023-03-02T10:12:05.923Z,10.7
2023-03-02T10:13:06.782Z,10.8
2023-03-02T10:14:06.675Z,10.8
2023-03-02T10:15:06.353Z,10.8
2023-03-02T10:16:06.897Z,11
2023-03-02T10:17:06.313Z,11
2023-03-02T10:18:06.222Z,11
2023-03-02T10:19:08.609Z,11.1
2023-03-02T10:20:06.985Z,11.1
2023-03-02T10:21:05.938Z,11
2023-03-02T10:22:05.832Z,11
2023-03-02T10:23:06.133Z,11.1
2023-03-02T10:24:06.056Z,11.1
2023-03-02T10:25:06.165Z,11.1
2023-03-02T10:26:06.036Z,11.2
2023-03-02T10:27:05.977Z,11.2
2023-03-02T10:28:05.819Z,11.2
2023-03-02T10:29:06.819Z,11.1
2023-03-02T10:30:06.657Z,11.2
2023-03-02T10:31:09.538Z,11.2
2023-03-02T10:32:06.388Z,11.2
2023-03-02T10:33:06.223Z,11.2
2023-03-02T10:34:06.103Z,11.2
2023-03-02T10:35:05.852Z,11.2
2023-03-02T10:36:06.037Z,11
2023-03-02T10:37:05.695Z,11.2
2023-03-02T10:38:06.263Z,11.3
2023-03-02T10:39:06.542Z,10
2023-03-02T10:40:06.316Z,11.6
2023-03-02T10:41:06.313Z,11.6
2023-03-02T10:42:06.797Z,11.6
2023-03-02T10:43:06.440Z,11.6
2023-03-02T10:44:06.419Z,11
2023-03-02T10:45:06.079Z,11.7
2023-03-02T10:46:06.557Z,11.8
2023-03-02T10:47:06.303Z,11.9
2023-03-02T10:48:05.931Z,11.9
2023-03-02T10:49:05.853Z,12
2023-03-02T10:50:05.575Z,12
2023-03-02T10:51:06.195Z,11
2023-03-02T10:52:05.871Z,12
2023-03-02T10:53:09.438Z,12
2023-03-02T10:54:06.797Z,12.1
2023-03-02T10:55:06.497Z,12.1
2023-03-02T10:56:06.740Z,12.1
2023-03-02T10:57:06.636Z,12
2023-03-02T10:58:06.454Z,12.1
2023-03-02T10:59:06.108Z,12.1
2023-03-02T11:00:05.795Z,12.1
2023-03-02T11:01:06.356Z,12.1
2023-03-02T11:02:06.425Z,12.2
2023-03-02T11:03:06.170Z,12
2023-03-02T11:04:05.968Z,12.2
2023-03-02T11:05:06.816Z,12.2
2023-03-02T11:06:06.122Z,12.3
2023-03-02T11:07:05.975Z,12.3
2023-03-02T11:08:06.093Z,12.4
2023-03-02T11:09:06.961Z,12.4
2023-03-02T11:10:06.557Z,12.4
2023-03-02T11:11:05.979Z,12.4
2023-03-02T11:12:05.739Z,12.4
2023-03-02T11:13:06.796Z,12.4
2023-03-02T11:14:06.613Z,12.4
2023-03-02T11:15:06.464Z,12
2023-03-02T11:16:06.679Z,12.4
2023-03-02T11:17:07.860Z,12.4
2023-03-02T11:18:06.130Z,12
2023-03-02T11:19:05.931Z,12
2023-03-02T11:20:05.866Z,12.4
2023-03-02T11:21:06.083Z,12.4
2023-03-02T11:22:05.915Z,12
2023-03-02T11:23:06.653Z,12.4
2023-03-02T11:24:06.451Z,12.4
2023-03-02T11:25:06.356Z,12.4
2023-03-02T11:26:06.626Z,12.4
2023-03-02T11:27:06.304Z,12.5
2023-03-02T11:28:06.262Z,12.5
2023-03-02T11:29:06.058Z,12
2023-03-02T11:30:06.081Z,12.6
2023-03-02T11:31:06.447Z,12.6
2023-03-02T11:32:06.625Z,12.7
2023-03-02T11:33:06.168Z,12.6
2023-03-02T11:34:20.057Z,12.6
2023-03-02T11:35:05.742Z,12.6
2023-03-02T11:36:06.472Z,12.7
2023-03-02T11:37:05.925Z,12.7
2023-03-02T11:38:05.726Z,12.7
2023-03-02T11:39:05.710Z,12.8
2023-03-02T11:40:06.627Z,12.8
2023-03-02T11:41:06.001Z,13
2023-03-02T11:42:06.846Z,12.8
2023-03-02T11:43:06.459Z,12.9
2023-03-02T11:44:06.308Z,12.9
2023-03-02T11:45:06.005Z,13
2023-03-02T11:46:21.422Z,13
2023-03-02T11:47:07.017Z,12.9
2023-03-02T11:48:08.004Z,12.8
2023-03-02T11:49:06.740Z,12.8
2023-03-02T11:50:06.353Z,13
2023-03-02T11:51:06.572Z,12.9
2023-03-02T11:52:06.577Z,13
2023-03-02T11:53:06.152Z,13
2023-03-02T11:54:06.267Z,13
2023-03-02T11:55:05.981Z,13.1
2023-03-02T11:56:06.285Z,13
2023-03-02T11:57:06.109Z,13.2
2023-03-02T11:58:05.936Z,13.2
2023-03-02T11:59:05.996Z,13
2023-03-02T12:00:05.840Z,13.2
2023-03-02T12:01:06.070Z,13.2
2023-03-02T12:02:06.692Z,13
2023-03-02T12:03:05.868Z,13.4
2023-03-02T12:04:06.645Z,13.4
2023-03-02T12:05:06.629Z,13.2
2023-03-02T12:06:08.077Z,13.3
2023-03-02T12:07:06.656Z,13.2
2023-03-02T12:08:06.434Z,13.2
2023-03-02T12:09:06.393Z,13.2
2023-03-02T12:10:06.204Z,13.2
2023-03-02T12:11:06.297Z,13.2
2023-03-02T12:12:07.562Z,13.2
2023-03-02T12:13:06.115Z,13.2
2023-03-02T12:14:05.997Z,13.2
2023-03-02T12:15:06.015Z,13.1
2023-03-02T12:16:06.367Z,13.1
2023-03-02T12:17:06.285Z,13.1
2023-03-02T12:18:06.022Z,13.1
2023-03-02T12:19:05.587Z,13.1
2023-03-02T12:20:06.847Z,13
2023-03-02T12:21:06.649Z,13.1
2023-03-02T12:22:06.567Z,13
2023-03-02T12:23:06.137Z,13
2023-03-02T12:24:05.889Z,13
2023-03-02T12:25:06.795Z,12.9
2023-03-02T12:26:05.994Z,13
2023-03-02T12:27:06.202Z,12.8
2023-03-02T12:28:05.680Z,12.9
2023-03-02T12:29:06.563Z,12.8
2023-03-02T12:30:06.603Z,12.8
2023-03-02T12:31:06.689Z,13
2023-03-02T12:32:06.883Z,12.8
2023-03-02T12:33:06.386Z,12.8
2023-03-02T12:34:06.392Z,12.8
2023-03-02T12:35:06.248Z,12.9
2023-03-02T12:36:06.340Z,12.9
2023-03-02T12:37:06.330Z,14
2023-03-02T12:38:06.163Z,13.1
2023-03-02T12:39:05.860Z,13.1
2023-03-02T12:40:07.587Z,13.1
2023-03-02T12:41:05.881Z,13
2023-03-02T12:42:06.785Z,13
2023-03-02T12:43:06.561Z,13
2023-03-02T12:44:06.511Z,13
2023-03-02T12:45:06.279Z,13
2023-03-02T12:46:06.854Z,12.9
2023-03-02T12:47:08.437Z,13
2023-03-02T12:48:07.611Z,13
2023-03-02T12:49:09.406Z,13
2023-03-02T12:50:06.002Z,13.1
2023-03-02T12:51:06.645Z,13.1
2023-03-02T12:52:06.605Z,13.1
2023-03-02T12:53:05.982Z,13.2
2023-03-02T12:54:06.019Z,13.1
2023-03-02T12:55:05.758Z,13
2023-03-02T12:56:06.416Z,13
2023-03-02T12:57:06.021Z,13
2023-03-02T12:58:07.429Z,13
2023-03-02T12:59:06.525Z,13
2023-03-02T13:00:06.767Z,13
2023-03-02T13:01:06.015Z,14
2023-03-02T13:02:05.762Z,13.1
2023-03-02T13:03:05.956Z,13.1
2023-03-02T13:04:06.685Z,13.2
2023-03-02T13:05:06.505Z,13.1
2023-03-02T13:06:06.442Z,13
2023-03-02T13:07:06.457Z,13
2023-03-02T13:08:06.369Z,14
2023-03-02T13:09:06.446Z,12.9
2023-03-02T13:10:06.119Z,13
2023-03-02T13:11:06.301Z,13
2023-03-02T13:12:05.956Z,13
2023-03-02T13:13:06.207Z,13
2023-03-02T13:14:06.428Z,14
2023-03-02T13:15:06.607Z,13
2023-03-02T13:16:05.858Z,13
2023-03-02T13:17:06.844Z,13
2023-03-02T13:18:06.697Z,13.1
2023-03-02T13:19:06.316Z,13
2023-03-02T13:20:06.271Z,13
2023-03-02T13:21:05.911Z,13
2023-03-02T13:22:06.788Z,13
2023-03-02T13:23:06.556Z,12.9
2023-03-02T13:24:06.346Z,14
2023-03-02T13:25:06.555Z,14
2023-03-02T13:26:06.454Z,12.8
2023-03-02T13:27:06.575Z,14
2023-03-02T13:28:06.189Z,12.8
2023-03-02T13:29:05.864Z,12.8
2023-03-02T13:30:08.172Z,12.8
2023-03-02T13:31:06.845Z,12.8
2023-03-02T13:32:06.150Z,12.8
2023-03-02T13:33:05.880Z,12.7
2023-03-02T13:34:06.751Z,12.6
2023-03-02T13:35:06.567Z,12.6
2023-03-02T13:36:05.886Z,12.6
2023-03-02T13:37:06.778Z,12.6
2023-03-02T13:38:06.857Z,12.7
2023-03-02T13:39:06.129Z,12.6
2023-03-02T13:40:06.162Z,12.6
2023-03-02T13:41:06.460Z,12.7
2023-03-02T13:42:06.252Z,12.7
2023-03-02T13:43:06.202Z,12.7
2023-03-02T13:44:06.000Z,12.7
2023-03-02T13:45:05.623Z,12.7
2023-03-02T13:46:06.352Z,12.7
2023-03-02T13:47:05.948Z,12.7
2023-03-02T13:48:05.925Z,12.6
2023-03-02T13:49:15.572Z,12.7
2023-03-02T13:50:06.559Z,12.7
2023-03-02T13:51:06.021Z,12.7
2023-03-02T13:52:08.280Z,12.7
2023-03-02T13:53:05.709Z,12.7
2023-03-02T13:54:06.531Z,12.6